Ontario, Wisconsin
Current Conditions -  °F | °C
As of 7:15 PM on Friday 28 Nov 2014 (Local Time) from KCMY Reporting Station
Scattered Clouds Scattered Clouds  
Wind Chill: 18°   Ceiling: Unl
Heat Index: 25°   Visibility: 10mi
Dew Point: 21°   Wind: 6mph
Humidity: 84%   Direction: 150°SSE
Pressure: 29.87"   Gusts: NA
Location:  43.73°N, 90.59°W
Report Text: KCMY 290115Z AUTO 15005KT 10SM SCT085 SCT120 M04/M06 A2987 RMK AO2 T10381062
Loading
Personal Weather Stations






























Interactive Weather Map New forecast layout! Learn more

10-Day Weather Forecast

Advertisements
Track Severe Weather on mobile